Time;durP1;ratioP1;P1;durP2;ratioP2;P2;SDS_P1;SDS_P2;PMS_P1;PMS_P2;Temp;Humidity;BMP_temperature;BMP_pressure;BME280_temperature;BME280_humidity;BME280_pressure;Samples;Min_cycle;Max_cycle;Signal;HPM_P1;HPM_P2
2021/12/26 00:00:14;;;;;;;;;23.25;19.25;;;;;11.86;76.84;100114.72;5067953;28;45267;-56
2021/12/26 00:02:40;;;;;;;;;25.25;22.75;;;;;11.84;76.97;100102.59;5077179;28;45366;-56
2021/12/26 00:05:07;;;;;;;;;25.75;18.75;;;;;11.82;76.85;100104.50;5082457;28;45368;-56
2021/12/26 00:07:34;;;;;;;;;23.00;21.25;;;;;11.81;76.61;100098.38;5082365;28;45445;-56
2021/12/26 00:09:59;;;;;;;;;23.50;20.00;;;;;11.79;76.84;100105.56;5082637;28;45364;-57
2021/12/26 00:12:25;;;;;;;;;26.00;20.75;;;;;11.79;76.70;100102.06;5082080;28;46213;-58
2021/12/26 00:14:51;;;;;;;;;20.50;20.25;;;;;11.78;76.77;100097.75;5082264;28;45565;-57
2021/12/26 00:17:16;;;;;;;;;27.50;22.25;;;;;11.77;76.68;100101.31;5082167;28;45351;-57
2021/12/26 00:19:42;;;;;;;;;24.50;20.25;;;;;11.77;76.71;100098.69;5080843;28;45356;-58
2021/12/26 00:22:07;;;;;;;;;29.00;21.75;;;;;11.75;76.88;100089.09;5081907;28;46263;-57
2021/12/26 00:24:33;;;;;;;;;29.25;28.75;;;;;11.76;76.60;100087.28;5082157;28;45354;-57
2021/12/26 00:26:59;;;;;;;;;23.00;19.75;;;;;11.74;76.78;100090.03;5081969;28;45259;-57
2021/12/26 00:29:24;;;;;;;;;24.75;18.75;;;;;11.74;76.71;100090.03;5082083;28;45529;-57
2021/12/26 00:31:50;;;;;;;;;22.50;18.25;;;;;11.71;76.79;100084.16;5081670;28;46171;-57
2021/12/26 00:34:16;;;;;;;;;22.25;17.50;;;;;11.69;76.74;100092.22;5081921;28;45398;-57
2021/12/26 00:36:42;;;;;;;;;26.25;21.25;;;;;11.68;76.70;100089.66;5082193;28;45379;-57
2021/12/26 00:39:09;;;;;;;;;24.00;19.25;;;;;11.67;76.78;100090.63;5081647;28;45294;-57
2021/12/26 00:41:35;;;;;;;;;25.50;19.00;;;;;11.65;77.00;100082.81;5081671;28;45367;-57
2021/12/26 00:44:01;;;;;;;;;25.50;20.75;;;;;11.66;76.93;100081.03;5081929;28;45251;-57
2021/12/26 00:46:27;;;;;;;;;29.25;25.50;;;;;11.65;76.85;100074.91;5082010;28;45414;-57
2021/12/26 00:48:52;;;;;;;;;24.25;20.50;;;;;11.65;76.87;100071.44;5079582;28;45552;-57
2021/12/26 00:51:18;;;;;;;;;26.00;19.25;;;;;11.64;76.89;100069.75;5061248;28;45295;-57
2021/12/26 00:53:43;;;;;;;;;26.00;22.25;;;;;11.64;76.89;100070.59;5061488;28;45332;-58
2021/12/26 00:56:09;;;;;;;;;24.25;18.00;;;;;11.65;76.81;100077.53;5070332;28;45480;-57
2021/12/26 00:58:34;;;;;;;;;30.50;21.00;;;;;11.63;77.05;100076.81;5069206;28;45368;-58
2021/12/26 01:01:00;;;;;;;;;29.00;23.50;;;;;11.68;76.82;100079.09;5067083;28;45263;-58
2021/12/26 01:03:26;;;;;;;;;25.00;23.25;;;;;11.69;76.77;100078.16;5081270;27;45297;-58
2021/12/26 01:05:55;;;;;;;;;30.75;24.00;;;;;11.70;76.99;100082.50;5081638;28;45360;-57
2021/12/26 01:08:26;;;;;;;;;29.00;25.75;;;;;11.72;76.94;100081.41;5081680;28;45397;-56
2021/12/26 01:10:57;;;;;;;;;29.50;23.25;;;;;11.75;76.74;100075.91;5081092;28;46369;-54
2021/12/26 01:13:30;;;;;;;;;26.50;21.75;;;;;11.77;76.98;100074.94;5081342;28;45369;-55
2021/12/26 01:15:59;;;;;;;;;27.00;26.25;;;;;11.79;76.89;100080.97;5081352;28;45364;-56
2021/12/26 01:18:28;;;;;;;;;24.00;22.75;;;;;11.79;76.89;100076.53;5080826;28;45493;-56
2021/12/26 01:21:15;;;;;;;;;33.75;24.00;;;;;11.81;77.04;100076.44;5080936;28;45423;-56
2021/12/26 01:23:40;;;;;;;;;27.25;24.50;;;;;11.82;76.49;100076.31;5080902;27;45260;-56
2021/12/26 01:26:05;;;;;;;;;26.75;25.00;;;;;11.81;76.57;100085.19;5081439;28;45303;-56
2021/12/26 01:28:32;;;;;;;;;32.25;27.00;;;;;11.81;76.69;100079.06;5080974;28;45248;-56
2021/12/26 01:30:58;;;;;;;;;30.50;26.00;;;;;11.81;76.77;100079.06;5081108;28;45522;-55
2021/12/26 01:33:26;;;;;;;;;33.50;24.50;;;;;11.82;76.85;100076.31;5080756;28;45332;-56
2021/12/26 01:35:51;;;;;;;;;36.50;29.50;;;;;11.82;76.74;100078.94;5081169;28;45358;-56
2021/12/26 01:38:17;;;;;;;;;34.75;28.00;;;;;11.81;76.93;100082.56;5081163;28;45303;-56
2021/12/26 01:40:49;;;;;;;;;33.00;26.75;;;;;11.82;76.72;100075.47;5080944;28;45291;-56
2021/12/26 01:43:16;;;;;;;;;29.75;27.00;;;;;11.82;76.86;100075.47;5080898;28;45408;-56
2021/12/26 01:45:43;;;;;;;;;37.25;27.00;;;;;11.81;76.78;100084.34;5081154;28;45292;-56
2021/12/26 01:48:09;;;;;;;;;25.75;25.50;;;;;11.80;76.97;100070.31;5080693;28;45410;-56
2021/12/26 01:50:36;;;;;;;;;29.50;28.00;;;;;11.83;76.68;100071.88;5065864;28;46155;-56
2021/12/26 01:53:05;;;;;;;;;26.50;24.00;;;;;11.83;77.07;100067.44;5064228;28;45236;-56
2021/12/26 01:55:43;;;;;;;;;30.75;26.50;;;;;11.83;76.88;100070.06;5070050;28;45372;-56
2021/12/26 01:58:17;;;;;;;;;39.50;27.75;;;;;11.83;76.94;100074.50;5064722;27;45251;-56
2021/12/26 02:00:46;;;;;;;;;26.50;23.25;;;;;11.83;76.69;100074.50;5067428;28;46162;-56
2021/12/26 02:03:11;;;;;;;;;25.50;21.75;;;;;11.78;76.55;100066.94;5083542;28;45330;-56
2021/12/26 02:05:37;;;;;;;;;27.25;24.50;;;;;11.74;76.46;100065.47;5084493;28;45250;-57
2021/12/26 02:08:04;;;;;;;;;26.50;23.25;;;;;11.74;76.75;100063.66;5084214;28;45291;-56
2021/12/26 02:10:31;;;;;;;;;24.00;21.00;;;;;11.73;76.57;100069.06;5084071;28;45322;-55
2021/12/26 02:12:57;;;;;;;;;26.00;23.75;;;;;11.74;76.80;100065.47;5084156;27;45406;-62
2021/12/26 02:15:23;;;;;;;;;26.75;24.00;;;;;11.77;76.83;100074.94;5084228;28;45291;-56
2021/12/26 02:17:48;;;;;;;;;23.50;20.25;;;;;11.77;76.84;100073.16;5083900;28;45513;-56
2021/12/26 02:21:21;;;;;;;;;25.25;21.50;;;;;11.78;76.60;100072.19;5084032;28;45877;-56
2021/12/26 02:23:37;;;;;;;;;27.50;23.75;;;;;11.78;76.77;100066.94;5080713;28;45468;-56
2021/12/26 02:28:38;;;;;;;;;24.25;19.50;;;;;11.79;76.47;100070.41;5083789;28;45490;-56
2021/12/26 02:31:05;;;;;;;;;30.00;26.50;;;;;11.77;76.62;100070.53;5083817;28;45257;-55
2021/12/26 02:33:31;;;;;;;;;29.50;24.00;;;;;11.77;76.62;100081.09;5083518;28;45295;-55
2021/12/26 02:35:58;;;;;;;;;34.00;27.25;;;;;11.74;76.70;100068.94;5084009;28;45264;-56
2021/12/26 02:38:23;;;;;;;;;22.00;22.00;;;;;11.76;76.73;100066.19;5083919;28;45421;-55
2021/12/26 02:40:51;;;;;;;;;32.25;27.50;;;;;11.78;76.86;100068.72;5083826;28;45936;-53
2021/12/26 02:43:20;;;;;;;;;30.00;26.50;;;;;11.78;76.78;100068.72;5083456;28;45230;-56
2021/12/26 02:45:46;;;;;;;;;38.75;28.00;;;;;11.79;76.90;100062.50;5083728;28;45247;-55
2021/12/26 02:48:12;;;;;;;;;39.00;33.50;;;;;11.78;76.90;100059.00;5083400;28;45409;-55
2021/12/26 02:50:39;;;;;;;;;38.50;29.00;;;;;11.79;76.97;100063.34;5066950;28;45316;-56
2021/12/26 02:53:07;;;;;;;;;34.00;27.00;;;;;11.78;76.84;100061.66;5062865;28;45382;-56
2021/12/26 02:55:33;;;;;;;;;23.75;19.50;;;;;11.78;76.95;100060.81;5069417;28;45267;-55
2021/12/26 02:58:03;;;;;;;;;27.75;26.00;;;;;11.78;76.95;100053.72;5066242;27;45224;-56
2021/12/26 03:00:34;;;;;;;;;24.75;20.00;;;;;11.79;76.84;100054.56;5067015;28;45906;-55
2021/12/26 03:03:03;;;;;;;;;26.00;22.75;;;;;11.77;76.81;100057.34;5080668;28;45282;-55
2021/12/26 03:05:31;;;;;;;;;30.50;27.50;;;;;11.73;76.38;100055.88;5083594;28;45289;-56
2021/12/26 03:07:57;;;;;;;;;25.25;23.25;;;;;11.71;76.86;100055.16;5083314;28;45362;-55
2021/12/26 03:10:26;;;;;;;;;20.75;20.00;;;;;11.69;76.63;100052.63;5083025;28;45401;-56
2021/12/26 03:12:55;;;;;;;;;22.25;19.25;;;;;11.68;76.68;100050.91;5083055;28;45213;-56
2021/12/26 03:15:23;;;;;;;;;26.50;24.25;;;;;11.68;76.77;100052.72;5083344;28;45450;-57
2021/12/26 03:17:49;;;;;;;;;30.00;23.00;;;;;11.67;76.82;100057.16;5083238;28;45320;-57
2021/12/26 03:20:20;;;;;;;;;24.00;18.75;;;;;11.67;76.72;100056.31;5083031;28;46112;-56
2021/12/26 03:22:46;;;;;;;;;27.25;21.00;;;;;11.66;76.81;100052.84;5083129;28;45414;-56
2021/12/26 03:25:19;;;;;;;;;23.75;19.00;;;;;11.66;76.68;100054.63;5083053;28;45516;-55
2021/12/26 03:27:45;;;;;;;;;22.25;18.75;;;;;11.66;76.92;100055.47;5083505;28;45355;-56
2021/12/26 03:30:14;;;;;;;;;28.00;21.50;;;;;11.65;76.72;100053.81;5082534;28;45306;-56
2021/12/26 03:32:40;;;;;;;;;28.50;19.75;;;;;11.63;76.94;100046.97;5082780;28;45472;-56
2021/12/26 03:35:07;;;;;;;;;22.75;19.00;;;;;11.62;76.96;100054.03;5082941;28;46274;-57
2021/12/26 03:37:34;;;;;;;;;30.50;22.75;;;;;11.61;76.88;100055.00;5083180;28;45468;-56
2021/12/26 03:39:59;;;;;;;;;23.25;20.00;;;;;11.60;77.11;100063.84;5081344;28;45395;-57
2021/12/26 03:42:25;;;;;;;;;30.00;23.50;;;;;11.60;76.85;100063.00;5082969;28;45438;-56
2021/12/26 03:44:52;;;;;;;;;22.25;20.00;;;;;11.60;77.02;100065.63;5082870;27;45314;-56
2021/12/26 03:47:18;;;;;;;;;20.75;19.50;;;;;11.61;77.27;100062.03;5082864;28;45433;-56
2021/12/26 03:49:44;;;;;;;;;26.75;21.25;;;;;11.60;77.11;100048.00;5073138;28;45373;-57
2021/12/26 03:52:10;;;;;;;;;27.75;21.00;;;;;11.60;77.04;100047.19;5062250;28;45223;-56
2021/12/26 03:54:36;;;;;;;;;23.25;17.25;;;;;11.60;77.29;100045.38;5062406;28;45200;-56
2021/12/26 03:57:02;;;;;;;;;23.50;18.75;;;;;11.62;77.09;100050.56;5072316;28;45244;-56
2021/12/26 03:59:27;;;;;;;;;24.00;20.25;;;;;11.62;77.17;100048.75;5067335;28;45354;-57
2021/12/26 04:01:56;;;;;;;;;20.75;19.75;;;;;11.63;77.33;100046.97;5070988;28;45433;-57
2021/12/26 04:04:22;;;;;;;;;30.25;23.75;;;;;11.61;77.14;100038.31;5082134;28;45327;-57
2021/12/26 04:06:48;;;;;;;;;22.25;19.25;;;;;11.63;77.01;100039.06;5082610;28;45263;-57
2021/12/26 04:09:15;;;;;;;;;24.50;22.50;;;;;11.63;77.23;100047.81;5082024;28;46175;-56
2021/12/26 04:11:44;;;;;;;;;21.75;19.25;;;;;11.64;77.38;100046.00;5082529;28;45583;-56
2021/12/26 04:14:10;;;;;;;;;25.75;20.75;;;;;11.65;77.20;100039.78;5081243;28;45267;-55
2021/12/26 04:16:35;;;;;;;;;25.50;22.50;;;;;11.64;77.34;100036.28;5082410;28;45420;-55
2021/12/26 04:19:02;;;;;;;;;28.00;19.00;;;;;11.64;77.13;100036.28;5081540;28;46073;-55
2021/12/26 04:21:27;;;;;;;;;25.50;16.75;;;;;11.64;77.07;100028.38;5082292;28;45443;-56
2021/12/26 04:23:53;;;;;;;;;20.50;17.50;;;;;11.64;77.29;100030.19;5082092;28;45476;-55
2021/12/26 04:26:18;;;;;;;;;24.00;20.25;;;;;11.62;77.31;100030.31;5082262;28;45247;-55
2021/12/26 04:28:44;;;;;;;;;27.25;22.25;;;;;11.62;77.07;100021.53;5081392;28;46366;-55
2021/12/26 04:31:09;;;;;;;;;21.00;20.00;;;;;11.61;77.27;100025.97;5082063;28;45220;-55
2021/12/26 04:33:35;;;;;;;;;30.75;24.50;;;;;11.60;77.17;100026.06;5081750;28;45243;-55
2021/12/26 04:36:00;;;;;;;;;24.75;22.75;;;;;11.59;77.20;100024.41;5082144;28;45459;-55
2021/12/26 04:38:26;;;;;;;;;33.50;24.75;;;;;11.58;77.20;100026.19;5080401;28;45657;-55
2021/12/26 04:40:52;;;;;;;;;28.75;24.00;;;;;11.57;77.33;100026.31;5081987;28;45296;-55
2021/12/26 04:43:20;;;;;;;;;27.00;22.00;;;;;11.57;77.54;100028.94;5082022;28;45240;-55
2021/12/26 04:45:47;;;;;;;;;24.50;22.25;;;;;11.58;77.30;100028.00;5081880;28;45341;-54
2021/12/26 04:48:12;;;;;;;;;36.75;26.00;;;;;11.59;77.22;100024.41;5081396;28;45316;-55
2021/12/26 04:50:38;;;;;;;;;24.50;18.50;;;;;11.58;77.33;100025.34;5065162;28;45417;-56
2021/12/26 04:53:04;;;;;;;;;13.75;11.25;;;;;11.57;77.08;100021.88;5061544;28;45396;-56
2021/12/26 04:55:30;;;;;;;;;29.75;23.75;;;;;11.58;77.17;100018.28;5067061;28;45251;-57
2021/12/26 04:57:56;;;;;;;;;30.25;25.75;;;;;11.57;77.46;100011.31;5064919;28;45402;-56
2021/12/26 05:00:24;;;;;;;;;24.75;19.25;;;;;11.59;77.08;100013.84;5065938;28;45220;-57
2021/12/26 05:02:50;;;;;;;;;19.75;19.00;;;;;11.59;77.28;100009.41;5078051;28;45315;-56
2021/12/26 05:05:16;;;;;;;;;29.25;23.75;;;;;11.59;77.11;100012.03;5081694;28;45631;-55
2021/12/26 05:07:42;;;;;;;;;28.50;22.75;;;;;11.60;77.29;100018.16;5081192;28;45318;-56
2021/12/26 05:10:11;;;;;;;;;23.75;22.50;;;;;11.57;77.01;100000.78;5081442;28;45466;-56
2021/12/26 05:12:36;;;;;;;;;27.50;23.50;;;;;11.55;77.10;100013.25;5081547;28;45366;-56
2021/12/26 05:15:05;;;;;;;;;18.75;18.00;;;;;11.55;77.25;100005.34;5081502;28;45516;-56
2021/12/26 05:17:30;;;;;;;;;22.00;20.25;;;;;11.55;77.24;99997.41;5080992;28;45403;-55
2021/12/26 05:19:56;;;;;;;;;27.50;19.00;;;;;11.54;77.24;100003.66;5081393;28;45333;-56
2021/12/26 05:22:22;;;;;;;;;26.00;24.25;;;;;11.53;77.55;99999.31;5081415;28;45340;-55
2021/12/26 05:24:48;;;;;;;;;23.75;20.25;;;;;11.53;77.75;100003.75;5081145;28;45237;-55
2021/12/26 05:27:14;;;;;;;;;27.75;23.25;;;;;11.53;77.69;99998.47;5080982;28;45437;-56
2021/12/26 05:29:40;;;;;;;;;23.25;22.25;;;;;11.51;77.50;99995.94;5080900;28;45305;-55
2021/12/26 05:32:06;;;;;;;;;27.00;22.75;;;;;11.51;77.92;99997.75;5081118;28;45246;-55
2021/12/26 05:34:31;;;;;;;;;26.50;21.50;;;;;11.50;77.83;99996.91;5081276;28;45263;-55
2021/12/26 05:36:57;;;;;;;;;29.75;22.25;;;;;11.51;77.74;99995.13;5080738;28;45227;-57
2021/12/26 05:39:22;;;;;;;;;23.75;20.75;;;;;11.49;77.66;99991.75;5081279;28;45476;-55
2021/12/26 05:41:48;;;;;;;;;21.75;19.25;;;;;11.48;78.03;99992.72;5081126;28;45419;-57
2021/12/26 05:44:14;;;;;;;;;20.75;18.50;;;;;11.46;77.76;99987.56;5081078;28;45442;-56
2021/12/26 05:46:39;;;;;;;;;23.50;22.50;;;;;11.47;77.68;99989.25;5080749;28;45424;-55
2021/12/26 05:49:05;;;;;;;;;21.00;18.25;;;;;11.44;77.33;99990.28;5077032;28;45264;-56
2021/12/26 05:51:31;;;;;;;;;25.50;22.00;;;;;11.43;77.92;99999.16;5060695;28;45327;-55
2021/12/26 05:53:57;;;;;;;;;25.00;17.75;;;;;11.45;77.66;99991.13;5060768;28;45426;-56
2021/12/26 05:56:22;;;;;;;;;21.25;18.50;;;;;11.43;78.03;99995.69;5070521;28;45459;-55
2021/12/26 05:58:48;;;;;;;;;25.25;21.75;;;;;11.41;77.74;99993.16;5062065;28;45618;-56
2021/12/26 06:01:14;;;;;;;;;22.50;22.25;;;;;11.42;77.81;99994.84;5068160;27;45231;-56
2021/12/26 06:03:40;;;;;;;;;23.00;20.75;;;;;11.43;77.77;100000.97;5079305;28;45521;-55
2021/12/26 06:06:06;;;;;;;;;24.50;21.75;;;;;11.43;77.51;99993.88;5080530;28;45354;-55
2021/12/26 06:08:31;;;;;;;;;19.25;18.75;;;;;11.44;77.96;99990.28;5080677;28;45268;-55
2021/12/26 06:10:57;;;;;;;;;22.25;22.00;;;;;11.46;77.95;99995.47;5080708;28;45236;-55
2021/12/26 06:13:22;;;;;;;;;23.50;21.75;;;;;11.45;77.89;99989.38;5080820;28;45366;-56
2021/12/26 06:15:48;;;;;;;;;21.00;18.25;;;;;11.49;77.86;99994.41;5080465;28;45337;-56
2021/12/26 06:18:13;;;;;;;;;25.75;22.25;;;;;11.50;77.98;99994.28;5080440;28;45395;-56
2021/12/26 06:20:39;;;;;;;;;23.75;21.00;;;;;11.51;77.93;99995.94;5080588;28;45444;-56
2021/12/26 06:23:05;;;;;;;;;27.25;23.25;;;;;11.54;77.94;99994.91;5080573;28;45314;-56
2021/12/26 06:25:31;;;;;;;;;18.00;17.25;;;;;11.54;77.94;100000.19;5080341;28;46003;-56
2021/12/26 06:27:56;;;;;;;;;22.75;20.00;;;;;11.54;78.11;99992.25;5080486;28;45344;-55
2021/12/26 06:30:22;;;;;;;;;21.50;18.50;;;;;11.53;77.99;99987.91;5080461;28;45398;-55
2021/12/26 06:32:47;;;;;;;;;16.75;16.75;;;;;11.55;78.03;99997.41;5080405;28;45250;-55
2021/12/26 06:35:13;;;;;;;;;17.75;13.50;;;;;11.56;77.85;99990.34;5080092;28;45232;-55
2021/12/26 06:37:40;;;;;;;;;17.75;15.50;;;;;11.57;77.85;99986.75;5083236;28;45219;-56
2021/12/26 06:40:08;;;;;;;;;17.75;17.75;;;;;11.57;77.98;99992.88;5083925;28;45244;-55
2021/12/26 06:42:40;;;;;;;;;17.25;15.25;;;;;11.57;78.05;99992.03;5084025;28;45580;-56
2021/12/26 06:45:06;;;;;;;;;14.75;13.25;;;;;11.59;77.91;99992.75;5083606;28;45441;-56
2021/12/26 06:47:32;;;;;;;;;19.00;18.25;;;;;11.61;78.05;99986.41;5083368;28;45260;-55
2021/12/26 06:49:57;;;;;;;;;18.75;17.75;;;;;11.61;77.80;99988.19;5072895;28;45327;-56
2021/12/26 06:52:23;;;;;;;;;18.75;13.00;;;;;11.61;77.79;99983.78;5063656;28;45425;-56
2021/12/26 06:54:48;;;;;;;;;16.00;14.00;;;;;11.63;77.83;99981.00;5063059;28;45680;-56
2021/12/26 06:57:14;;;;;;;;;16.50;15.50;;;;;11.62;78.04;99985.44;5072543;28;45314;-56
2021/12/26 06:59:39;;;;;;;;;16.75;13.00;;;;;11.61;77.80;99982.91;5068072;28;45318;-56
2021/12/26 07:02:05;;;;;;;;;18.50;16.50;;;;;11.64;78.11;99988.81;5074327;28;45299;-55
2021/12/26 07:04:31;;;;;;;;;15.75;12.50;;;;;11.65;77.88;99995.75;5083018;28;46131;-56
2021/12/26 07:06:56;;;;;;;;;17.25;14.50;;;;;11.66;77.70;99988.69;5083394;28;45322;-56
2021/12/26 07:09:22;;;;;;;;;17.50;15.50;;;;;11.66;77.88;99986.88;5083328;28;45244;-56
2021/12/26 07:11:47;;;;;;;;;15.25;15.25;;;;;11.66;78.07;99989.53;5083510;28;45364;-56
2021/12/26 07:14:13;;;;;;;;;18.00;15.75;;;;;11.65;77.58;99985.22;5083221;28;45613;-55
2021/12/26 07:16:39;;;;;;;;;15.50;15.50;;;;;11.67;77.79;99982.44;5083063;28;45413;-56
2021/12/26 07:19:04;;;;;;;;;15.00;11.25;;;;;11.68;77.63;99990.25;5082847;28;45459;-54
2021/12/26 07:21:30;;;;;;;;;17.00;11.50;;;;;11.70;77.85;99990.16;5083375;28;45602;-55
2021/12/26 07:23:55;;;;;;;;;15.50;11.75;;;;;11.71;77.67;99990.03;5082952;28;45451;-56
2021/12/26 07:26:23;;;;;;;;;16.00;15.25;;;;;11.72;77.75;99994.34;5083172;28;45238;-56
2021/12/26 07:28:49;;;;;;;;;16.25;13.75;;;;;11.74;77.80;99996.84;5082782;28;45354;-55
2021/12/26 07:31:15;;;;;;;;;15.50;15.50;;;;;11.77;77.41;100003.69;5083282;28;45354;-55
2021/12/26 07:33:41;;;;;;;;;15.25;15.00;;;;;11.78;77.41;100002.75;5082518;28;45329;-56
2021/12/26 07:36:06;;;;;;;;;18.00;15.75;;;;;11.77;77.37;100009.84;5082944;28;45317;-55
2021/12/26 07:38:32;;;;;;;;;17.50;13.00;;;;;11.79;77.37;100004.44;5082974;28;45320;-56
2021/12/26 07:40:57;;;;;;;;;18.25;16.50;;;;;11.79;77.37;100007.91;5083088;28;45592;-56
2021/12/26 07:43:23;;;;;;;;;11.50;11.25;;;;;11.79;77.57;100009.72;5082883;28;46422;-55
2021/12/26 07:45:48;;;;;;;;;13.50;11.25;;;;;11.79;77.31;100010.56;5082741;28;45234;-55
2021/12/26 07:48:14;;;;;;;;;18.25;14.25;;;;;11.76;77.53;100000.22;5082430;28;45298;-56
2021/12/26 07:50:39;;;;;;;;;21.25;16.75;;;;;11.77;77.69;99995.78;5066022;28;45412;-54
2021/12/26 07:53:06;;;;;;;;;18.25;15.50;;;;;11.78;77.58;100005.41;5062355;28;45390;-55
2021/12/26 07:55:32;;;;;;;;;15.75;15.50;;;;;11.78;77.67;100000.13;5068164;28;45301;-56
2021/12/26 07:57:58;;;;;;;;;15.50;14.50;;;;;11.77;77.60;100006.31;5065416;27;45275;-56
2021/12/26 08:00:23;;;;;;;;;14.00;12.00;;;;;11.77;77.70;99998.41;5066704;28;45635;-55
2021/12/26 08:02:49;;;;;;;;;15.00;15.00;;;;;11.79;77.84;100007.06;5078741;28;46022;-55
2021/12/26 08:05:16;;;;;;;;;18.00;13.25;;;;;11.80;77.85;100012.25;5082526;28;45309;-56
2021/12/26 08:07:42;;;;;;;;;16.75;13.50;;;;;11.82;77.85;100015.63;5082497;28;45361;-56
2021/12/26 08:10:08;;;;;;;;;14.00;12.25;;;;;11.82;78.02;100012.97;5082717;28;45463;-56
2021/12/26 08:12:34;;;;;;;;;17.75;14.75;;;;;11.83;77.84;100014.66;5082321;28;46652;-55
2021/12/26 08:15:01;;;;;;;;;19.00;17.00;;;;;11.84;77.79;100015.50;5082296;28;45420;-56
2021/12/26 08:17:28;;;;;;;;;18.50;16.50;;;;;11.87;77.75;100021.41;5082028;28;45418;-56
2021/12/26 08:19:53;;;;;;;;;16.50;13.00;;;;;11.88;77.77;100019.59;5082671;28;45404;-56
2021/12/26 08:22:19;;;;;;;;;13.50;12.50;;;;;11.89;78.02;100014.19;5082012;28;46408;-56
2021/12/26 08:24:44;;;;;;;;;21.25;16.50;;;;;11.90;77.99;100022.97;5081911;28;45480;-56
2021/12/26 08:27:10;;;;;;;;;17.00;15.25;;;;;11.91;78.08;100014.06;5082043;28;45374;-56
2021/12/26 08:29:36;;;;;;;;;25.00;18.75;;;;;11.90;77.89;100025.59;5082099;28;45512;-54
2021/12/26 08:32:01;;;;;;;;;17.75;15.25;;;;;11.91;77.96;100020.19;5081731;28;45348;-57
2021/12/26 08:34:27;;;;;;;;;20.50;15.75;;;;;11.94;77.84;100025.25;5081914;28;45482;-54
2021/12/26 08:36:59;;;;;;;;;22.75;17.50;;;;;11.96;77.89;100025.97;5081909;28;45319;-56
2021/12/26 08:39:26;;;;;;;;;18.00;16.50;;;;;11.97;77.81;100034.72;5082021;28;45381;-55
2021/12/26 08:41:52;;;;;;;;;18.75;14.50;;;;;11.96;77.91;100033.06;5081889;28;45447;-55
2021/12/26 08:44:18;;;;;;;;;15.50;12.50;;;;;11.96;78.22;100031.25;5082089;28;45322;-54
2021/12/26 08:46:45;;;;;;;;;19.75;15.25;;;;;11.94;78.37;100033.19;5081801;28;45233;-56
2021/12/26 08:49:11;;;;;;;;;22.50;16.75;;;;;11.93;78.20;100031.50;5077311;28;45173;-55
2021/12/26 08:51:37;;;;;;;;;17.75;14.00;;;;;11.96;78.32;100041.81;5061288;28;45512;-55
2021/12/26 08:54:04;;;;;;;;;20.25;16.25;;;;;11.96;78.40;100044.44;5061319;28;45377;-56
2021/12/26 08:56:30;;;;;;;;;19.25;16.00;;;;;11.97;78.23;100043.50;5071317;28;45568;-56
2021/12/26 08:58:56;;;;;;;;;12.25;11.00;;;;;12.01;78.44;100046.75;5063049;28;45261;-55
2021/12/26 09:01:21;;;;;;;;;16.25;13.50;;;;;12.04;78.17;100043.03;5068338;28;46053;-56
2021/12/26 09:03:47;;;;;;;;;17.75;16.75;;;;;12.06;78.39;100043.75;5081202;28;45324;-56
2021/12/26 09:06:12;;;;;;;;;22.25;15.50;;;;;12.07;78.19;100042.78;5081591;28;45232;-56
2021/12/26 09:08:38;;;;;;;;;29.75;25.25;;;;;12.10;78.01;100039.94;5081724;28;45304;-56
2021/12/26 09:11:04;;;;;;;;;18.75;16.75;;;;;12.14;78.33;100046.63;5081142;28;46362;-55
2021/12/26 09:13:29;;;;;;;;;20.50;18.50;;;;;12.19;78.10;100049.78;5081315;28;45357;-56
2021/12/26 09:15:55;;;;;;;;;18.50;17.00;;;;;12.23;78.21;100051.19;5081429;28;45304;-56
2021/12/26 09:18:20;;;;;;;;;21.50;18.00;;;;;12.28;77.92;100049.06;5081220;28;45368;-56
2021/12/26 09:20:46;;;;;;;;;16.25;12.75;;;;;12.28;77.77;100060.47;5081069;28;45623;-56
2021/12/26 09:23:11;;;;;;;;;19.75;15.50;;;;;12.29;77.91;100061.31;5081346;28;45408;-53
2021/12/26 09:25:37;;;;;;;;;16.75;16.25;;;;;12.32;77.97;100057.56;5081164;28;45280;-56
2021/12/26 09:28:03;;;;;;;;;21.25;17.50;;;;;12.33;77.84;100065.41;5081132;28;45549;-56
2021/12/26 09:30:28;;;;;;;;;18.75;16.50;;;;;12.38;77.83;100063.22;5080949;28;45535;-55
2021/12/26 09:32:54;;;;;;;;;16.00;14.25;;;;;12.40;77.88;100071.03;5080902;28;45337;-56
2021/12/26 09:35:20;;;;;;;;;22.50;14.75;;;;;12.43;77.72;100068.16;5081095;28;45466;-54
2021/12/26 09:37:45;;;;;;;;;22.00;17.25;;;;;12.44;77.68;100069.84;5081370;28;45396;-57
2021/12/26 09:40:12;;;;;;;;;18.50;15.50;;;;;12.48;77.60;100071.28;5080958;28;46165;-55
2021/12/26 09:42:38;;;;;;;;;17.75;13.00;;;;;12.49;77.57;100067.69;5081251;27;45315;-55
2021/12/26 09:45:08;;;;;;;;;14.75;14.50;;;;;12.49;77.48;100065.06;5080895;28;45244;-55
2021/12/26 09:47:35;;;;;;;;;14.75;13.00;;;;;12.51;77.40;100066.59;5080858;28;45489;-55
2021/12/26 09:50:01;;;;;;;;;11.25;11.25;;;;;12.52;77.42;100070.09;5069526;28;46165;-56
2021/12/26 09:52:27;;;;;;;;;15.25;13.25;;;;;12.54;77.41;100071.63;5060741;28;45318;-56
2021/12/26 09:54:52;;;;;;;;;18.00;11.75;;;;;12.56;77.23;100072.38;5059644;28;45356;-56
2021/12/26 09:57:18;;;;;;;;;13.75;12.25;;;;;12.58;77.29;100074.91;5070253;28;45232;-55
2021/12/26 09:59:47;;;;;;;;;15.25;11.25;;;;;12.60;77.16;100074.78;5065500;28;45358;-56
2021/12/26 10:02:15;;;;;;;;;16.00;14.00;;;;;12.62;77.06;100070.19;5071917;28;45481;-57
2021/12/26 10:04:42;;;;;;;;;14.50;14.50;;;;;12.62;77.16;100080.78;5080795;28;45326;-56
2021/12/26 10:07:23;;;;;;;;;11.25;10.25;;;;;12.63;76.83;100072.72;5080884;28;45271;-55
2021/12/26 10:09:51;;;;;;;;;12.00;10.75;;;;;12.60;77.02;100072.13;5080584;28;45995;-57
2021/12/26 10:12:20;;;;;;;;;12.00;10.50;;;;;12.57;76.79;100070.56;5082842;28;45332;-55
2021/12/26 10:14:53;;;;;;;;;15.25;12.00;;;;;12.56;77.07;100068.91;5084517;28;45243;-56
2021/12/26 10:17:26;;;;;;;;;10.00;10.00;;;;;12.55;77.21;100065.38;5083886;28;45386;-56
2021/12/26 10:20:00;;;;;;;;;13.00;12.00;;;;;12.56;77.05;100061.81;5072240;28;45505;-56
2021/12/26 10:22:26;;;;;;;;;10.75;9.50;;;;;12.57;77.00;100062.66;5082181;28;45318;-57
2021/12/26 10:24:54;;;;;;;;;10.00;9.75;;;;;12.58;76.80;100054.59;5084094;28;45366;-56
2021/12/26 10:27:22;;;;;;;;;10.00;10.00;;;;;12.60;76.94;100053.63;5084122;28;45444;-56
2021/12/26 10:29:50;;;;;;;;;10.75;9.50;;;;;12.62;77.01;100049.06;5083705;28;45582;-56
2021/12/26 10:32:22;;;;;;;;;10.50;9.50;;;;;12.62;76.97;100047.25;5083546;28;45326;-56
2021/12/26 10:34:54;;;;;;;;;12.75;11.00;;;;;12.64;76.88;100047.13;5084125;27;45323;-55
2021/12/26 10:37:38;;;;;;;;;10.00;9.25;;;;;12.64;76.68;100039.22;5084162;28;45219;-55
2021/12/26 10:40:15;;;;;;;;;10.50;9.50;;;;;12.63;77.02;100045.47;5083748;28;45285;-56
2021/12/26 10:42:47;;;;;;;;;11.25;9.50;;;;;12.61;76.98;100042.09;5083791;28;45444;-57
2021/12/26 10:45:15;;;;;;;;;12.25;8.75;;;;;12.57;76.77;100037.06;5083695;28;45266;-57
2021/12/26 10:47:44;;;;;;;;;10.25;9.00;;;;;12.57;77.00;100047.63;5083607;27;45399;-56
2021/12/26 10:50:11;;;;;;;;;14.25;9.75;;;;;12.57;77.05;100034.44;5070915;28;45389;-56
2021/12/26 10:52:49;;;;;;;;;14.25;9.75;;;;;12.57;77.17;100033.59;5063405;28;45469;-56
2021/12/26 10:55:23;;;;;;;;;8.25;7.25;;;;;12.60;77.00;100037.78;5071312;28;45289;-57
2021/12/26 10:57:51;;;;;;;;;10.50;10.00;;;;;12.63;77.17;100038.38;5067607;27;45238;-56
2021/12/26 11:00:19;;;;;;;;;15.00;10.75;;;;;12.66;77.13;100030.22;5067752;28;46073;-56
2021/12/26 11:02:54;;;;;;;;;10.50;9.00;;;;;12.71;76.88;100028.03;5079149;28;45255;-57
2021/12/26 11:05:23;;;;;;;;;10.75;9.00;;;;;12.69;77.12;100021.19;5083493;28;45345;-56
2021/12/26 11:07:52;;;;;;;;;9.00;8.00;;;;;12.67;76.98;100033.69;5083476;28;45219;-57
2021/12/26 11:10:23;;;;;;;;;13.25;9.75;;;;;12.63;77.28;100034.88;5083277;28;45518;-57
2021/12/26 11:12:54;;;;;;;;;13.75;10.00;;;;;12.60;77.50;100037.78;5083234;28;45477;-57